Terminal Aerodrome Forecast
Issued by NWS

Home | Current Version | Previous Version | Text Only | Print | Product List | Glossary On
Versions: 1 2 3 4 5 6 7 8 9 10 11 12 13 14
000
FTUS46 KPDT 062334 CCA
TAFBDN
TAF COR
KBDN 062334Z 0700/0724 34011G17KT P6SM VCTS SCT080CB BKN150
      TEMPO 0700/0702 VRB15G25KT 6SM TSRA SCT060CB BKN080CB
     FM070300 VRB05KT P6SM SCT100 SCT250
     FM071000 21004KT P6SM SCT250
     FM071900 35010KT P6SM SCT090 BKN250
     FM072200 34010KT P6SM VCSH SCT080 BKN250
      AMD NOT SKED=

USA.gov is the U.S. government's official web portal to all federal, state and local government web resources and services.